Irini — SYZA — position and weather

sailwx.info

Track history (hours):
 
Tides and Currents Weather Stations Pressure Air Temp Water Temp Dewpoint Dewpoint Depression Visibility Wind Speed Wind Dir Waves Ship Positions

Irini

Last reported at 2014-Jul-23 13:24 UTC. Time now 2014-Jul-24 04:22 UTC.
Position N 37°51' E 024°29'.

Length 137 m; draft 7 m.

Type: Tanker. MMSI: 240052000.

Date/timePositionNaut miles runAvg speedWind from/ knotsBaromVisibWave heightAir tempDewpointWater temp
2014-Jul-23 13:24N 37°51' E 024°29'2711.6
2014-Jul-23 11:04N 37°36' E 024°00'1710.8
2014-Jul-23 09:32N 37°43' E 023°41'1111.4
2014-Jul-23 08:33N 37°54' E 023°37'8 8.3
2014-Jul-23 07:33N 38°01' E 023°32'0 0.3
2014-Jul-23 06:19N 38°01' E 023°32'0 0.0
2014-Jul-23 00:19N 38°01' E 023°32'0 0.0
2014-Jul-22 23:34N 38°01' E 023°32'0 0.0
2014-Jul-22 22:34N 38°01' E 023°32'0 0.0
2014-Jul-22 21:34N 38°01' E 023°32'0 0.2
2014-Jul-22 20:31N 38°01' E 023°31'1 0.8
2014-Jul-22 19:31N 38°02' E 023°31'0 0.0
2014-Jul-22 18:31N 38°02' E 023°31'0 0.0
2014-Jul-22 17:31N 38°02' E 023°31'0 0.0
2014-Jul-22 16:19N 38°02' E 023°31'0 0.0
2014-Jul-22 15:28N 38°02' E 023°31'0 0.0
2014-Jul-22 14:31N 38°02' E 023°31'0 0.0
2014-Jul-22 13:31N 38°02' E 023°31'0 0.0
2014-Jul-22 12:28N 38°02' E 023°31'0 0.0
2014-Jul-22 11:31N 38°02' E 023°31'0 0.0
2014-Jul-22 10:28N 38°02' E 023°31'4 0.2
2014-Jul-21 14:06N 38°02' E 023°36'1 1.2
2014-Jul-21 13:33N 38°01' E 023°35'3 2.4
2014-Jul-21 12:30N 38°01' E 023°32'0 0.0
2014-Jul-21 11:33N 38°01' E 023°32'0 0.1
2014-Jul-21 10:24N 38°01' E 023°32'0 0.0
2014-Jul-21 07:33N 38°01' E 023°32'0 0.1
2014-Jul-21 06:21N 38°01' E 023°32'3 0.1
2014-Jul-19 11:33N 38°01' E 023°36'0 0.1
2014-Jul-19 04:33N 38°01' E 023°35'4 3.8
2014-Jul-19 03:33N 38°02' E 023°30'0 0.2
2014-Jul-19 02:33N 38°02' E 023°31'0 0.0
2014-Jul-19 01:33N 38°02' E 023°31'0 0.0
2014-Jul-19 00:33N 38°02' E 023°31'0 0.0
2014-Jul-18 23:33N 38°02' E 023°31'0 0.0
2014-Jul-18 22:33N 38°02' E 023°31'0 0.0
2014-Jul-18 21:33N 38°02' E 023°31'0 0.0
2014-Jul-18 20:33N 38°02' E 023°31'0 0.0
2014-Jul-18 19:27N 38°02' E 023°31'0 0.0
2014-Jul-18 18:33N 38°02' E 023°31'0 0.0
2014-Jul-18 17:33N 38°02' E 023°31'0 0.0
2014-Jul-18 16:33N 38°02' E 023°31'0 0.0
2014-Jul-18 15:30N 38°02' E 023°31'0 0.0
2014-Jul-18 14:21N 38°02' E 023°31'0 0.0
2014-Jul-18 13:30N 38°02' E 023°31'0 0.0
2014-Jul-18 12:33N 38°02' E 023°31'0 0.0
2014-Jul-18 11:33N 38°02' E 023°31'0 0.0
2014-Jul-18 10:27N 38°02' E 023°31'0 0.0
2014-Jul-18 09:30N 38°02' E 023°31'0 0.0
2014-Jul-18 00:33N 38°02' E 023°31'0 0.0
2014-Jul-17 23:33N 38°02' E 023°31'0 0.0
2014-Jul-17 22:33N 38°02' E 023°31'0 0.0
2014-Jul-17 21:33N 38°02' E 023°31'0 0.0
2014-Jul-17 20:21N 38°02' E 023°31'0 0.0
2014-Jul-17 19:33N 38°02' E 023°31'0 0.0
2014-Jul-17 18:33N 38°02' E 023°31'0 0.0
2014-Jul-17 17:24N 38°02' E 023°31'0 0.0
2014-Jul-17 16:33N 38°02' E 023°31'0 0.0
2014-Jul-17 15:33N 38°02' E 023°31'0 0.1
2014-Jul-17 14:33N 38°02' E 023°30'4 4.3
2014-Jul-17 13:33N 37°58' E 023°33'9 8.6
2014-Jul-17 12:33N 37°51' E 023°39'1211.9
2014-Jul-17 11:33N 37°40' E 023°46'1311.9
2014-Jul-17 10:29N 37°37' E 024°01'  
2014-Jul-14 21:18N 37°51' E 024°29'2211.6
2014-Jul-14 19:25N 37°37' E 024°08'1111.6
2014-Jul-14 18:30N 37°36' E 023°55'1111.4
2014-Jul-14 17:34N 37°41' E 023°42'1111.4
2014-Jul-14 16:33N 37°51' E 023°36'8 7.7
2014-Jul-14 15:34N 37°58' E 023°33'3 2.8
2014-Jul-14 14:30N 38°01' E 023°32'0 0.0
2014-Jul-14 13:30N 38°01' E 023°32'0 0.0
2014-Jul-14 11:18N 38°01' E 023°32'3 3.5
2014-Jul-14 10:33N 38°01' E 023°35'  
Track history (hours):
 
Tides and Currents Weather Stations Pressure Air Temp Water Temp Dewpoint Dewpoint Depression Visibility Wind Speed Wind Dir Waves Ship Positions

Irini

Last reported at 2014-Jul-23 13:24 UTC. Time now 2014-Jul-24 04:22 UTC.
Position N 37°51' E 024°29'.

Length 137 m; draft 7 m.

Type: Tanker. MMSI: 240052000.

Date/timePositionNaut miles runAvg speedWind from/ knotsBaromVisibWave heightAir tempDewpointWater temp
2014-Jul-23 13:24N 37°51' E 024°29'2711.6
2014-Jul-23 11:04N 37°36' E 024°00'1710.8
2014-Jul-23 09:32N 37°43' E 023°41'1111.4
2014-Jul-23 08:33N 37°54' E 023°37'8 8.3
2014-Jul-23 07:33N 38°01' E 023°32'0 0.3
2014-Jul-23 06:19N 38°01' E 023°32'0 0.0
2014-Jul-23 00:19N 38°01' E 023°32'0 0.0
2014-Jul-22 23:34N 38°01' E 023°32'0 0.0
2014-Jul-22 22:34N 38°01' E 023°32'0 0.0
2014-Jul-22 21:34N 38°01' E 023°32'0 0.2
2014-Jul-22 20:31N 38°01' E 023°31'1 0.8
2014-Jul-22 19:31N 38°02' E 023°31'0 0.0
2014-Jul-22 18:31N 38°02' E 023°31'0 0.0
2014-Jul-22 17:31N 38°02' E 023°31'0 0.0
2014-Jul-22 16:19N 38°02' E 023°31'0 0.0
2014-Jul-22 15:28N 38°02' E 023°31'0 0.0
2014-Jul-22 14:31N 38°02' E 023°31'0 0.0
2014-Jul-22 13:31N 38°02' E 023°31'0 0.0
2014-Jul-22 12:28N 38°02' E 023°31'0 0.0
2014-Jul-22 11:31N 38°02' E 023°31'0 0.0
2014-Jul-22 10:28N 38°02' E 023°31'4 0.2
2014-Jul-21 14:06N 38°02' E 023°36'1 1.2
2014-Jul-21 13:33N 38°01' E 023°35'3 2.4
2014-Jul-21 12:30N 38°01' E 023°32'0 0.0
2014-Jul-21 11:33N 38°01' E 023°32'0 0.1
2014-Jul-21 10:24N 38°01' E 023°32'0 0.0
2014-Jul-21 07:33N 38°01' E 023°32'0 0.1
2014-Jul-21 06:21N 38°01' E 023°32'3 0.1
2014-Jul-19 11:33N 38°01' E 023°36'0 0.1
2014-Jul-19 04:33N 38°01' E 023°35'4 3.8
2014-Jul-19 03:33N 38°02' E 023°30'0 0.2
2014-Jul-19 02:33N 38°02' E 023°31'0 0.0
2014-Jul-19 01:33N 38°02' E 023°31'0 0.0
2014-Jul-19 00:33N 38°02' E 023°31'0 0.0
2014-Jul-18 23:33N 38°02' E 023°31'0 0.0
2014-Jul-18 22:33N 38°02' E 023°31'0 0.0
2014-Jul-18 21:33N 38°02' E 023°31'0 0.0
2014-Jul-18 20:33N 38°02' E 023°31'0 0.0
2014-Jul-18 19:27N 38°02' E 023°31'0 0.0
2014-Jul-18 18:33N 38°02' E 023°31'0 0.0
2014-Jul-18 17:33N 38°02' E 023°31'0 0.0
2014-Jul-18 16:33N 38°02' E 023°31'0 0.0
2014-Jul-18 15:30N 38°02' E 023°31'0 0.0
2014-Jul-18 14:21N 38°02' E 023°31'0 0.0
2014-Jul-18 13:30N 38°02' E 023°31'0 0.0
2014-Jul-18 12:33N 38°02' E 023°31'0 0.0
2014-Jul-18 11:33N 38°02' E 023°31'0 0.0
2014-Jul-18 10:27N 38°02' E 023°31'0 0.0
2014-Jul-18 09:30N 38°02' E 023°31'0 0.0
2014-Jul-18 00:33N 38°02' E 023°31'0 0.0
2014-Jul-17 23:33N 38°02' E 023°31'0 0.0
2014-Jul-17 22:33N 38°02' E 023°31'0 0.0
2014-Jul-17 21:33N 38°02' E 023°31'0 0.0
2014-Jul-17 20:21N 38°02' E 023°31'0 0.0
2014-Jul-17 19:33N 38°02' E 023°31'0 0.0
2014-Jul-17 18:33N 38°02' E 023°31'0 0.0
2014-Jul-17 17:24N 38°02' E 023°31'0 0.0
2014-Jul-17 16:33N 38°02' E 023°31'0 0.0
2014-Jul-17 15:33N 38°02' E 023°31'0 0.1
2014-Jul-17 14:33N 38°02' E 023°30'4 4.3
2014-Jul-17 13:33N 37°58' E 023°33'9 8.6
2014-Jul-17 12:33N 37°51' E 023°39'1211.9
2014-Jul-17 11:33N 37°40' E 023°46'1311.9
2014-Jul-17 10:29N 37°37' E 024°01'  
2014-Jul-14 21:18N 37°51' E 024°29'2211.6
2014-Jul-14 19:25N 37°37' E 024°08'1111.6
2014-Jul-14 18:30N 37°36' E 023°55'1111.4
2014-Jul-14 17:34N 37°41' E 023°42'1111.4
2014-Jul-14 16:33N 37°51' E 023°36'8 7.7
2014-Jul-14 15:34N 37°58' E 023°33'3 2.8
2014-Jul-14 14:30N 38°01' E 023°32'0 0.0
2014-Jul-14 13:30N 38°01' E 023°32'0 0.0
2014-Jul-14 11:18N 38°01' E 023°32'3 3.5
2014-Jul-14 10:33N 38°01' E 023°35'  

Dump ship's entire track history